createdAt,value
2023-05-12T00:00:49.123Z,96.20
2023-05-12T00:03:36.415Z,96.20
2023-05-12T00:06:23.617Z,96.40
2023-05-12T00:09:10.723Z,96.40
2023-05-12T00:11:58.062Z,96.40
2023-05-12T00:14:45.118Z,96.40
2023-05-12T00:17:32.249Z,96.40
2023-05-12T00:20:19.703Z,96.50
2023-05-12T00:23:07.274Z,96.40
2023-05-12T00:25:54.262Z,96.40
2023-05-12T00:28:41.313Z,96.30
2023-05-12T00:31:30.123Z,96.20
2023-05-12T00:34:17.184Z,96.20
2023-05-12T00:37:04.534Z,96.20
2023-05-12T00:39:51.624Z,96.20
2023-05-12T00:42:38.802Z,96.20
2023-05-12T00:45:26.448Z,96.20
2023-05-12T00:48:13.788Z,96.20
2023-05-12T00:51:02.050Z,96.30
2023-05-12T00:53:50.681Z,96.40
2023-05-12T00:56:39.412Z,96.30
2023-05-12T00:59:29.567Z,96.50
2023-05-12T01:02:16.875Z,96.50
2023-05-12T01:05:04.305Z,96.30
2023-05-12T01:07:51.810Z,96.40
2023-05-12T01:10:44.280Z,96.20
2023-05-12T01:13:31.506Z,96.20
2023-05-12T01:16:23.016Z,96.20
2023-05-12T01:19:24.905Z,96.20
2023-05-12T01:22:12.822Z,96.20
2023-05-12T01:25:09.962Z,96.20
2023-05-12T01:27:57.527Z,96.30
2023-05-12T01:30:45.345Z,96.30
2023-05-12T01:33:35.484Z,96.30
2023-05-12T01:36:22.629Z,96.30
2023-05-12T01:39:09.953Z,96.20
2023-05-12T01:41:57.116Z,96.40
2023-05-12T01:44:44.407Z,96.50
2023-05-12T01:47:31.808Z,96.50
2023-05-12T01:50:28.994Z,96.40
2023-05-12T01:53:16.135Z,96.50
2023-05-12T01:56:03.214Z,96.40
2023-05-12T01:58:52.759Z,96.40
2023-05-12T02:01:40.219Z,96.50
2023-05-12T02:04:30.180Z,96.40
2023-05-12T02:07:18.370Z,96.40
2023-05-12T02:10:07.681Z,96.30
2023-05-12T02:12:54.761Z,96.20
2023-05-12T02:15:42.139Z,96.20
2023-05-12T02:18:29.355Z,96.30
2023-05-12T02:21:16.414Z,96.30
2023-05-12T02:24:03.694Z,96.20
2023-05-12T02:26:51.636Z,96.20
2023-05-12T02:29:39.335Z,96.10
2023-05-12T02:32:29.717Z,96.10
2023-05-12T02:35:16.794Z,96.00
2023-05-12T02:38:04.844Z,96.00
2023-05-12T02:40:52.528Z,96.00
2023-05-12T02:43:40.020Z,95.90
2023-05-12T02:46:27.075Z,96.00
2023-05-12T02:49:14.201Z,96.00
2023-05-12T02:52:02.822Z,96.10
2023-05-12T02:54:49.990Z,96.10
2023-05-12T02:57:37.058Z,95.90
2023-05-12T03:00:24.162Z,96.10
2023-05-12T03:03:11.365Z,96.10
2023-05-12T03:06:00.347Z,96.20
2023-05-12T03:08:47.645Z,96.20
2023-05-12T03:11:34.800Z,96.00
2023-05-12T03:14:21.839Z,96.10
2023-05-12T03:17:09.193Z,96.10
2023-05-12T03:19:56.278Z,96.00
2023-05-12T03:22:43.410Z,95.90
2023-05-12T03:25:31.351Z,96.00
2023-05-12T03:28:18.586Z,96.10
2023-05-12T03:31:05.763Z,96.00
2023-05-12T03:33:53.084Z,96.10
2023-05-12T03:36:41.004Z,96.20
2023-05-12T03:39:28.350Z,96.20
2023-05-12T03:42:15.960Z,96.10
2023-05-12T03:45:03.349Z,96.10
2023-05-12T03:47:50.946Z,96.10
2023-05-12T03:50:38.539Z,96.20
2023-05-12T03:53:25.776Z,96.20
2023-05-12T03:56:13.161Z,96.20
2023-05-12T03:59:00.203Z,96.30
2023-05-12T04:01:47.452Z,96.40
2023-05-12T04:04:34.582Z,96.50
2023-05-12T04:07:21.691Z,96.10
2023-05-12T04:10:08.939Z,96.20
2023-05-12T04:12:56.010Z,96.40
2023-05-12T04:15:45.810Z,96.40
2023-05-12T04:18:32.840Z,96.20
2023-05-12T04:21:20.356Z,96.20
2023-05-12T04:24:07.737Z,96.40
2023-05-12T04:26:57.856Z,96.50
2023-05-12T04:29:45.426Z,96.50
2023-05-12T04:32:32.556Z,96.50
2023-05-12T04:35:21.114Z,96.40
2023-05-12T04:38:08.437Z,96.20
2023-05-12T04:41:00.826Z,95.90
2023-05-12T04:46:38.487Z,95.90
2023-05-12T04:49:26.108Z,95.70
2023-05-12T04:52:13.190Z,95.60
2023-05-12T04:55:00.279Z,95.50
2023-05-12T04:57:47.352Z,95.20
2023-05-12T05:00:35.065Z,95.40
2023-05-12T05:03:22.525Z,95.70
2023-05-12T05:06:09.751Z,95.20
2023-05-12T05:08:57.277Z,95.00
2023-05-12T05:11:44.358Z,94.80
2023-05-12T05:14:32.746Z,94.30
2023-05-12T05:17:20.218Z,94.00
2023-05-12T05:20:11.597Z,94.20
2023-05-12T05:22:59.811Z,94.40
2023-05-12T05:25:47.093Z,94.30
2023-05-12T05:28:34.479Z,94.20
2023-05-12T05:31:21.878Z,94.10
2023-05-12T05:34:09.104Z,94.00
2023-05-12T05:36:56.584Z,93.30
2023-05-12T05:39:43.680Z,93.90
2023-05-12T05:42:30.744Z,93.90
2023-05-12T05:45:18.042Z,92.90
2023-05-12T05:48:05.562Z,93.20
2023-05-12T05:50:54.200Z,93.00
2023-05-12T05:53:43.050Z,92.30
2023-05-12T05:56:31.646Z,91.70
2023-05-12T05:59:18.927Z,91.30
2023-05-12T06:02:07.079Z,91.40
2023-05-12T06:04:54.552Z,91.00
2023-05-12T06:07:41.574Z,90.10
2023-05-12T06:10:29.718Z,90.10
2023-05-12T06:13:16.913Z,90.60
2023-05-12T06:16:04.107Z,91.20
2023-05-12T06:18:51.353Z,90.50
2023-05-12T06:21:38.777Z,89.20
2023-05-12T06:24:25.821Z,89.60
2023-05-12T06:27:12.940Z,89.50
2023-05-12T06:30:00.262Z,89.10
2023-05-12T06:32:47.608Z,88.50
2023-05-12T06:35:34.742Z,87.70
2023-05-12T06:38:25.979Z,87.50
2023-05-12T06:41:13.127Z,86.90
2023-05-12T06:44:03.086Z,86.40
2023-05-12T06:46:50.177Z,86.50
2023-05-12T06:49:38.684Z,85.80
2023-05-12T06:52:26.036Z,86.70
2023-05-12T06:55:13.164Z,86.30
2023-05-12T06:58:00.896Z,86.20
2023-05-12T07:00:48.140Z,85.80
2023-05-12T07:03:35.305Z,86.40
2023-05-12T07:06:22.360Z,86.90
2023-05-12T07:09:09.382Z,86.00
2023-05-12T07:11:56.506Z,85.10
2023-05-12T07:14:43.561Z,84.80
2023-05-12T07:17:30.845Z,85.00
2023-05-12T07:20:17.934Z,84.60
2023-05-12T07:23:05.218Z,84.30
2023-05-12T07:25:52.316Z,84.00
2023-05-12T07:28:39.401Z,84.50
2023-05-12T07:31:26.550Z,84.10
2023-05-12T07:34:13.632Z,84.90
2023-05-12T07:37:04.031Z,82.70
2023-05-12T07:39:51.525Z,82.00
2023-05-12T07:42:38.617Z,82.30
2023-05-12T07:45:25.817Z,83.40
2023-05-12T07:48:13.407Z,82.10
2023-05-12T07:51:00.536Z,81.80
2023-05-12T07:53:47.562Z,81.50
2023-05-12T07:56:34.643Z,80.30
2023-05-12T07:59:21.702Z,79.90
2023-05-12T08:02:08.889Z,79.70
2023-05-12T08:04:55.931Z,78.90
2023-05-12T08:07:43.814Z,79.60
2023-05-12T08:10:32.654Z,79.80
2023-05-12T08:13:19.698Z,77.30
2023-05-12T08:16:06.766Z,77.10
2023-05-12T08:18:53.863Z,77.20
2023-05-12T08:21:40.932Z,75.70
2023-05-12T08:24:28.178Z,75.20
2023-05-12T08:27:15.226Z,75.50
2023-05-12T08:30:02.274Z,73.90
2023-05-12T08:32:49.374Z,72.70
2023-05-12T08:35:36.575Z,73.60
2023-05-12T08:38:23.661Z,74.10
2023-05-12T08:41:21.859Z,74.40
2023-05-12T08:44:09.730Z,70.70
2023-05-12T08:46:58.224Z,70.00
2023-05-12T08:49:46.218Z,70.70
2023-05-12T08:52:35.529Z,71.70
2023-05-12T08:55:26.005Z,71.60
2023-05-12T08:58:16.553Z,72.40
2023-05-12T09:01:06.195Z,71.30
2023-05-12T09:03:53.403Z,68.50
2023-05-12T09:06:41.008Z,70.60
2023-05-12T09:09:32.644Z,70.10
2023-05-12T09:12:21.317Z,71.30
2023-05-12T09:15:11.901Z,71.90
2023-05-12T09:17:59.070Z,72.00
2023-05-12T09:20:46.282Z,70.40
2023-05-12T09:23:33.307Z,69.50
2023-05-12T09:26:22.569Z,69.00
2023-05-12T09:29:15.812Z,68.80
2023-05-12T09:32:08.332Z,69.00
2023-05-12T09:34:56.055Z,69.40
2023-05-12T09:37:43.173Z,69.40
2023-05-12T09:40:30.204Z,69.90
2023-05-12T09:43:17.512Z,69.20
2023-05-12T09:46:06.141Z,68.50
2023-05-12T09:48:56.450Z,66.60
2023-05-12T09:51:43.605Z,67.50
2023-05-12T09:54:31.943Z,66.90
2023-05-12T09:57:21.328Z,67.30
2023-05-12T10:00:31.374Z,65.70
2023-05-12T10:03:24.294Z,65.20
2023-05-12T10:06:16.098Z,63.70
2023-05-12T10:09:10.531Z,65.40
2023-05-12T10:11:59.104Z,64.80
2023-05-12T10:14:47.592Z,64.20
2023-05-12T10:17:36.305Z,63.40
2023-05-12T10:20:24.026Z,62.10
2023-05-12T10:23:13.403Z,60.50
2023-05-12T10:26:02.429Z,59.10
2023-05-12T10:28:50.576Z,58.50
2023-05-12T10:31:38.545Z,58.60
2023-05-12T10:34:36.915Z,58.90
2023-05-12T10:37:24.003Z,58.00
2023-05-12T10:40:11.309Z,58.40
2023-05-12T10:42:59.972Z,57.00
2023-05-12T10:45:47.037Z,57.60
2023-05-12T10:48:34.336Z,56.40
2023-05-12T10:51:29.912Z,56.60
2023-05-12T10:54:25.984Z,57.30
2023-05-12T10:57:22.290Z,59.10
2023-05-12T11:00:14.378Z,58.50
2023-05-12T11:03:09.681Z,57.80
2023-05-12T11:06:02.880Z,57.60
2023-05-12T11:08:50.904Z,57.70
2023-05-12T11:11:38.472Z,57.80
2023-05-12T11:14:26.091Z,57.20
2023-05-12T11:17:14.920Z,56.40
2023-05-12T11:20:02.078Z,57.30
2023-05-12T11:22:49.215Z,55.90
2023-05-12T11:25:36.574Z,57.20
2023-05-12T11:28:24.162Z,56.60
2023-05-12T11:31:19.780Z,56.20
2023-05-12T11:34:13.066Z,56.20
2023-05-12T11:37:00.718Z,55.80
2023-05-12T11:39:47.908Z,53.70
2023-05-12T11:42:34.936Z,51.40
2023-05-12T11:45:23.318Z,46.70
2023-05-12T11:48:13.036Z,47.50
2023-05-12T11:51:00.950Z,48.30
2023-05-12T11:53:48.040Z,47.40
2023-05-12T11:56:35.301Z,48.00
2023-05-12T11:59:32.861Z,47.60
2023-05-12T12:02:21.551Z,50.00
2023-05-12T12:05:18.930Z,47.20
2023-05-12T12:08:13.289Z,48.20
2023-05-12T12:11:03.416Z,47.20
2023-05-12T12:13:57.705Z,47.00
2023-05-12T12:16:44.770Z,46.40
2023-05-12T12:19:31.790Z,46.90
2023-05-12T12:22:18.993Z,48.00
2023-05-12T12:25:06.730Z,47.70
2023-05-12T12:27:53.843Z,46.60
2023-05-12T12:30:40.984Z,46.70
2023-05-12T12:33:28.052Z,46.30
2023-05-12T12:36:15.094Z,46.40
2023-05-12T12:39:03.122Z,46.40
2023-05-12T12:41:50.232Z,44.30
2023-05-12T12:44:37.245Z,43.60
2023-05-12T12:47:24.479Z,44.10
2023-05-12T12:50:11.717Z,43.70
2023-05-12T12:52:58.882Z,44.20
2023-05-12T12:55:45.974Z,43.70
2023-05-12T12:58:33.052Z,43.20
2023-05-12T13:01:20.195Z,43.90
2023-05-12T13:04:07.302Z,43.60
2023-05-12T13:06:54.518Z,44.00
2023-05-12T13:09:41.562Z,44.10
2023-05-12T13:12:30.502Z,44.50
2023-05-12T13:15:19.520Z,43.20
2023-05-12T13:18:06.831Z,43.40
2023-05-12T13:20:54.208Z,45.20
2023-05-12T13:23:41.263Z,44.80
2023-05-12T13:26:28.390Z,46.30
2023-05-12T13:29:15.467Z,45.20
2023-05-12T13:32:03.162Z,44.80
2023-05-12T13:34:50.211Z,44.30
2023-05-12T13:37:37.456Z,45.10
2023-05-12T13:40:24.554Z,45.80
2023-05-12T13:43:12.377Z,44.00
2023-05-12T13:45:59.443Z,45.20
2023-05-12T13:48:48.145Z,45.30
2023-05-12T13:51:35.381Z,45.20
2023-05-12T13:54:23.030Z,45.10
2023-05-12T13:57:10.131Z,45.90
2023-05-12T13:59:58.469Z,45.00
2023-05-12T14:02:45.917Z,46.50
2023-05-12T14:05:33.160Z,44.80
2023-05-12T14:08:20.517Z,43.20
2023-05-12T14:11:08.065Z,41.30
2023-05-12T14:13:55.127Z,40.00
2023-05-12T14:16:42.275Z,38.40
2023-05-12T14:19:29.351Z,35.50
2023-05-12T14:22:25.493Z,35.00
2023-05-12T14:25:13.361Z,34.40
2023-05-12T14:28:00.581Z,34.10
2023-05-12T14:30:48.674Z,34.30
2023-05-12T14:33:35.942Z,34.60
2023-05-12T14:36:23.049Z,36.30
2023-05-12T14:39:10.103Z,35.00
2023-05-12T14:41:57.113Z,34.00
2023-05-12T14:44:44.126Z,33.70
2023-05-12T14:47:31.173Z,32.70
2023-05-12T14:50:18.826Z,32.60
2023-05-12T14:53:06.204Z,32.40
2023-05-12T14:55:53.292Z,31.80
2023-05-12T14:58:40.555Z,32.20
2023-05-12T15:01:28.138Z,31.90
2023-05-12T15:04:15.231Z,30.20
2023-05-12T15:07:02.298Z,30.30
2023-05-12T15:09:49.609Z,29.60
2023-05-12T15:12:36.631Z,30.10
2023-05-12T15:15:24.099Z,30.90
2023-05-12T15:18:11.136Z,30.20
2023-05-12T15:20:58.218Z,29.80
2023-05-12T15:23:45.258Z,30.00
2023-05-12T15:26:34.153Z,29.20
2023-05-12T15:29:22.196Z,29.50
2023-05-12T15:32:09.267Z,28.20
2023-05-12T15:34:57.809Z,28.60
2023-05-12T15:37:45.096Z,28.60
2023-05-12T15:40:32.221Z,28.80
2023-05-12T15:43:19.305Z,30.00
2023-05-12T15:46:06.629Z,30.10
2023-05-12T15:48:53.682Z,30.10
2023-05-12T15:51:41.001Z,29.60
2023-05-12T15:54:28.154Z,30.10
2023-05-12T15:57:15.193Z,29.70
2023-05-12T16:00:02.462Z,29.50
2023-05-12T16:03:01.708Z,29.70
2023-05-12T16:05:49.098Z,29.40
2023-05-12T16:08:36.182Z,29.90
2023-05-12T16:11:23.615Z,30.70
2023-05-12T16:14:10.656Z,30.90
2023-05-12T16:16:58.013Z,29.60
2023-05-12T16:19:45.069Z,30.20
2023-05-12T16:22:32.112Z,30.50
2023-05-12T16:25:20.188Z,31.50
2023-05-12T16:28:07.845Z,31.30
2023-05-12T16:30:54.995Z,30.70
2023-05-12T16:33:42.189Z,30.30
2023-05-12T16:36:31.855Z,30.40
2023-05-12T16:39:19.017Z,32.00
2023-05-12T16:42:06.460Z,32.20
2023-05-12T16:44:56.983Z,33.90
2023-05-12T16:47:44.086Z,33.70
2023-05-12T16:50:32.152Z,33.20
2023-05-12T16:53:19.236Z,33.80
2023-05-12T16:56:06.693Z,34.30
2023-05-12T16:58:53.727Z,35.70
2023-05-12T17:01:40.812Z,35.70
2023-05-12T17:04:27.959Z,35.90
2023-05-12T17:07:15.083Z,36.70
2023-05-12T17:10:02.958Z,37.50
2023-05-12T17:12:50.004Z,38.10
2023-05-12T17:15:38.092Z,38.30
2023-05-12T17:18:25.862Z,37.90
2023-05-12T17:21:13.857Z,37.90
2023-05-12T17:24:00.865Z,38.20
2023-05-12T17:26:48.300Z,38.20
2023-05-12T17:29:35.346Z,38.30
2023-05-12T17:32:22.925Z,38.50
2023-05-12T17:35:10.646Z,38.00
2023-05-12T17:37:57.709Z,38.60
2023-05-12T17:40:44.745Z,39.30
2023-05-12T17:43:32.007Z,39.10
2023-05-12T17:46:19.150Z,39.40
2023-05-12T17:49:06.247Z,39.90
2023-05-12T17:51:56.248Z,40.40
2023-05-12T17:54:43.968Z,40.40
2023-05-12T17:57:31.302Z,40.00
2023-05-12T18:00:18.557Z,40.10
2023-05-12T18:03:05.625Z,39.70
2023-05-12T18:05:54.408Z,40.10
2023-05-12T18:08:41.457Z,40.40
2023-05-12T18:11:29.151Z,41.80
2023-05-12T18:14:16.786Z,41.20
2023-05-12T18:17:04.118Z,41.00
2023-05-12T18:19:51.443Z,41.10
2023-05-12T18:22:38.524Z,41.70
2023-05-12T18:25:25.518Z,42.50
2023-05-12T18:28:12.576Z,42.30
2023-05-12T18:31:03.050Z,42.30
2023-05-12T18:33:59.735Z,43.90
2023-05-12T18:36:46.781Z,43.70
2023-05-12T18:39:34.149Z,44.20
2023-05-12T18:42:21.237Z,43.80
2023-05-12T18:45:08.587Z,44.20
2023-05-12T18:47:55.718Z,44.00
2023-05-12T18:50:43.148Z,44.20
2023-05-12T18:53:30.469Z,45.20
2023-05-12T18:56:17.535Z,45.30
2023-05-12T18:59:04.615Z,44.90
2023-05-12T19:01:52.150Z,45.80
2023-05-12T19:04:39.337Z,46.00
2023-05-12T19:07:26.398Z,46.90
2023-05-12T19:10:13.538Z,47.50
2023-05-12T19:13:00.666Z,46.40
2023-05-12T19:15:47.759Z,46.90
2023-05-12T19:18:34.908Z,46.20
2023-05-12T19:21:22.031Z,46.90
2023-05-12T19:24:10.585Z,46.60
2023-05-12T19:26:57.856Z,46.50
2023-05-12T19:29:44.904Z,46.60
2023-05-12T19:32:33.036Z,47.00
2023-05-12T19:35:22.413Z,46.90
2023-05-12T19:38:09.677Z,48.30
2023-05-12T19:40:56.876Z,48.20
2023-05-12T19:43:43.904Z,47.70
2023-05-12T19:46:31.032Z,48.20
2023-05-12T19:49:18.122Z,47.30
2023-05-12T19:52:06.033Z,48.60
2023-05-12T19:54:53.460Z,48.60
2023-05-12T19:57:40.592Z,48.00
2023-05-12T20:00:28.062Z,49.30
2023-05-12T20:03:15.437Z,49.40
2023-05-12T20:06:02.789Z,49.40
2023-05-12T20:08:49.854Z,49.60
2023-05-12T20:11:36.885Z,50.00
2023-05-12T20:14:23.993Z,50.70
2023-05-12T20:17:12.187Z,50.00
2023-05-12T20:20:01.250Z,50.90
2023-05-12T20:22:48.384Z,51.40
2023-05-12T20:25:36.227Z,51.10
2023-05-12T20:28:24.069Z,53.00
2023-05-12T20:31:11.214Z,53.40
2023-05-12T20:33:58.266Z,54.80
2023-05-12T20:36:46.320Z,55.30
2023-05-12T20:39:33.525Z,55.40
2023-05-12T20:42:20.645Z,55.60
2023-05-12T20:45:08.874Z,55.50
2023-05-12T20:47:56.100Z,56.00
2023-05-12T20:50:43.700Z,56.70
2023-05-12T20:53:30.780Z,57.30
2023-05-12T20:56:17.800Z,57.80
2023-05-12T20:59:04.869Z,58.20
2023-05-12T21:01:52.022Z,58.60
2023-05-12T21:04:39.126Z,59.00
2023-05-12T21:07:26.522Z,59.10
2023-05-12T21:10:13.651Z,59.50
2023-05-12T21:13:00.686Z,59.80
2023-05-12T21:15:47.724Z,60.40
2023-05-12T21:18:35.006Z,60.70
2023-05-12T21:21:22.068Z,61.40
2023-05-12T21:24:09.102Z,61.80
2023-05-12T21:26:56.710Z,62.00
2023-05-12T21:29:43.774Z,62.30
2023-05-12T21:32:30.916Z,62.80
2023-05-12T21:35:18.057Z,63.10
2023-05-12T21:38:07.270Z,63.30
2023-05-12T21:40:56.368Z,63.50
2023-05-12T21:43:43.510Z,64.00
2023-05-12T21:46:30.657Z,64.40
2023-05-12T21:49:17.831Z,64.60
2023-05-12T21:52:05.479Z,64.30
2023-05-12T21:54:52.588Z,64.50
2023-05-12T21:57:40.111Z,65.00
2023-05-12T22:00:27.536Z,65.30
2023-05-12T22:03:14.582Z,65.40
2023-05-12T22:06:02.118Z,65.30
2023-05-12T22:08:49.202Z,65.30
2023-05-12T22:11:36.460Z,66.00
2023-05-12T22:14:23.644Z,66.40
2023-05-12T22:17:11.002Z,66.90
2023-05-12T22:19:58.088Z,66.90
2023-05-12T22:22:45.120Z,67.20
2023-05-12T22:25:32.226Z,67.20
2023-05-12T22:28:19.274Z,67.60
2023-05-12T22:31:06.391Z,67.60
2023-05-12T22:33:53.410Z,67.80
2023-05-12T22:36:40.478Z,68.20
2023-05-12T22:39:27.488Z,68.30
2023-05-12T22:42:14.526Z,68.40
2023-05-12T22:45:04.588Z,68.80
2023-05-12T22:47:51.687Z,68.90
2023-05-12T22:50:38.800Z,68.80
2023-05-12T22:53:25.801Z,68.70
2023-05-12T22:56:12.817Z,69.10
2023-05-12T22:58:59.811Z,69.40
2023-05-12T23:01:46.966Z,69.40
2023-05-12T23:04:34.000Z,69.80
2023-05-12T23:07:21.182Z,70.00
2023-05-12T23:10:08.960Z,70.20
2023-05-12T23:12:56.017Z,70.20
2023-05-12T23:15:43.052Z,70.40
2023-05-12T23:18:31.038Z,69.40
2023-05-12T23:21:18.124Z,69.10
2023-05-12T23:24:05.813Z,69.80
2023-05-12T23:26:52.931Z,69.30
2023-05-12T23:29:39.974Z,68.90
2023-05-12T23:32:27.419Z,68.60
2023-05-12T23:35:14.664Z,68.10
2023-05-12T23:38:01.704Z,68.00
2023-05-12T23:40:48.791Z,67.10
2023-05-12T23:43:36.078Z,67.40
2023-05-12T23:46:23.203Z,67.70
2023-05-12T23:49:10.535Z,67.90
2023-05-12T23:51:57.561Z,68.20
2023-05-12T23:54:44.591Z,67.90
2023-05-12T23:57:31.666Z,68.10
